< < Back
Terminal Aerodrome Forecast


Current Version              Previous Versions:   1  2  3  4  5  6  7  8  9  

Terminal Aerodrome Forecast

137
FTUS42 KCHS 291739
TAFCHS
TAF
KCHS 291739Z 2918/3018 23012G20KT P6SM -RA BKN010 OVC025
     FM292000 29014G22KT P6SM -RA BKN010 OVC025
     FM300200 34010KT P6SM VCSH BKN007=



Latest METAR

470
SAUS80 KWBC 292300 RRB
MTRCHS
METAR KCHS 292256Z 15006KT 10SM BKN020 BKN200 24/18 A2989 RMK AO2 SLP119
T02390183


USA.gov is the U.S. government's official web portal to all federal, state and local government web resources and services.